Time;durP1;ratioP1;P1;durP2;ratioP2;P2;SDS_P1;SDS_P2;PMS_P1;PMS_P2;Temp;Humidity;BMP_temperature;BMP_pressure;BME280_temperature;BME280_humidity;BME280_pressure;Samples;Min_cycle;Max_cycle;Signal;HPM_P1;HPM_P2
2023/11/30 00:00:03;;;;;;;22.13;15.43;;;;;;;10.07;47.68;99624.44;1668045;86;21339;-81
2023/11/30 00:03:08;;;;;;;22.05;15.23;;;;;;;9.96;48.09;99603.88;1667187;86;21967;-82
2023/11/30 00:06:15;;;;;;;24.60;16.10;;;;;;;10.31;47.76;99612.37;1668017;86;21337;-82
2023/11/30 00:09:21;;;;;;;26.27;15.10;;;;;;;10.21;47.93;99614.53;1668072;86;21305;-82
2023/11/30 00:12:27;;;;;;;23.92;16.05;;;;;;;10.42;47.68;99626.89;1667254;86;21324;-82
2023/11/30 00:15:33;;;;;;;21.55;14.55;;;;;;;10.56;47.39;99633.89;1666427;86;21263;-82
2023/11/30 00:18:40;;;;;;;22.65;15.95;;;;;;;10.25;47.87;99636.34;1672291;85;21320;-82
2023/11/30 00:21:47;;;;;;;20.05;14.33;;;;;;;10.04;48.03;99641.72;1690468;83;21335;-82
2023/11/30 00:24:52;;;;;;;21.90;14.07;;;;;;;10.12;47.90;99658.87;1713365;83;21323;-82
2023/11/30 00:27:59;;;;;;;19.02;13.80;;;;;;;9.86;48.41;99661.20;1713272;82;21860;-82
2023/11/30 00:31:04;;;;;;;20.20;13.83;;;;;;;9.88;48.45;99663.22;1714805;83;21292;-82
2023/11/30 00:34:11;;;;;;;21.85;13.83;;;;;;;9.78;48.63;99662.13;1737988;82;21825;-82
2023/11/30 00:37:16;;;;;;;18.82;13.43;;;;;;;9.70;48.53;99652.16;1737039;81;21393;-82
2023/11/30 00:40:22;;;;;;;21.60;14.55;;;;;;;9.58;48.57;99655.52;1738037;82;21292;-82
2023/11/30 00:43:28;;;;;;;20.37;13.43;;;;;;;9.31;48.90;99655.08;1736693;81;21295;-82
2023/11/30 00:46:35;;;;;;;18.77;11.93;;;;;;;9.34;48.83;99644.33;1737698;81;21292;-81
2023/11/30 00:49:34;;;;;;;17.55;12.37;;;;;;;9.38;48.35;99635.58;1737901;82;21881;-81
2023/11/30 00:52:40;;;;;;;17.17;12.82;;;;;;;9.11;48.52;99625.25;1737135;81;21299;-82
2023/11/30 00:55:46;;;;;;;20.65;13.32;;;;;;;9.00;48.80;99636.09;1737870;82;21192;-81
2023/11/30 00:58:51;;;;;;;22.10;13.65;;;;;;;9.02;49.01;99640.83;1738033;82;21607;-81
2023/11/30 01:01:57;;;;;;;23.85;13.45;;;;;;;9.14;49.09;99653.55;1737739;81;21308;-82
2023/11/30 01:05:03;;;;;;;21.02;13.35;;;;;;;9.47;48.50;99650.01;1737921;82;21578;-81
2023/11/30 01:08:09;;;;;;;20.80;14.35;;;;;;;9.52;48.49;99649.45;1737036;81;21307;-83
2023/11/30 01:11:15;;;;;;;19.40;12.82;;;;;;;9.56;48.40;99646.69;1737997;82;21286;-82
2023/11/30 01:14:21;;;;;;;20.55;12.80;;;;;;;9.60;48.15;99642.55;1737981;82;21295;-82
2023/11/30 01:17:29;;;;;;;18.55;13.28;;;;;;;9.65;48.15;99645.57;1737391;81;21312;-82
2023/11/30 01:20:35;;;;;;;19.42;11.65;;;;;;;9.79;47.82;99632.97;1737032;82;21315;-81
2023/11/30 01:23:41;;;;;;;18.48;12.23;;;;;;;9.83;47.63;99639.72;1735101;81;21323;-81
2023/11/30 01:26:46;;;;;;;16.87;11.75;;;;;;;9.65;47.58;99652.40;1711509;82;21826;-81
2023/11/30 01:29:52;;;;;;;16.37;11.05;;;;;;;9.43;48.22;99659.08;1709581;84;21283;-81
2023/11/30 01:32:57;;;;;;;20.97;14.03;;;;;;;9.36;48.62;99690.89;1708464;82;21342;-81
2023/11/30 01:36:03;;;;;;;17.98;12.63;;;;;;;9.41;48.47;99694.40;1708760;84;21338;-81
2023/11/30 01:39:09;;;;;;;23.30;13.20;;;;;;;9.46;48.91;99702.39;1709549;84;21279;-81
2023/11/30 01:42:15;;;;;;;20.70;12.80;;;;;;;9.91;48.07;99710.66;1709418;82;21330;-81
2023/11/30 01:45:21;;;;;;;15.23;10.60;;;;;;;9.70;48.45;99700.47;1709328;84;21290;-80
2023/11/30 01:48:28;;;;;;;17.35;11.80;;;;;;;9.64;48.40;99697.09;1708083;82;21303;-81
2023/11/30 01:51:35;;;;;;;19.42;13.30;;;;;;;9.65;48.45;99707.01;1707837;82;21900;-81
2023/11/30 01:54:41;;;;;;;16.27;11.30;;;;;;;9.68;48.59;99717.54;1709290;84;21287;-82
2023/11/30 01:57:47;;;;;;;17.48;11.97;;;;;;;9.51;48.64;99714.65;1708593;82;21899;-82
2023/11/30 02:00:52;;;;;;;21.68;12.25;;;;;;;9.66;48.39;99714.16;1709459;84;21283;-82
2023/11/30 02:03:46;;;;;;;14.73;10.45;;;;;;;9.75;48.15;99720.40;1708057;84;21931;-82
2023/11/30 02:06:54;;;;;;;17.02;11.12;;;;;;;9.69;48.10;99721.96;1708765;82;21326;-81
2023/11/30 02:10:00;;;;;;;17.95;11.70;;;;;;;9.72;47.62;99718.36;1709208;84;21295;-81
2023/11/30 02:13:05;;;;;;;18.95;12.13;;;;;;;9.63;47.79;99736.36;1708383;82;21851;-81
2023/11/30 02:16:11;;;;;;;17.57;11.78;;;;;;;9.63;47.83;99745.92;1709393;84;21291;-81
2023/11/30 02:19:18;;;;;;;14.93;11.43;;;;;;;9.72;47.89;99739.36;1708081;84;21287;-81
2023/11/30 02:22:23;;;;;;;19.20;12.25;;;;;;;9.70;48.05;99726.42;1708481;82;21820;-81
2023/11/30 02:25:29;;;;;;;14.50;11.53;;;;;;;9.64;48.41;99708.02;1709305;84;21307;-82
2023/11/30 02:28:36;;;;;;;19.02;12.00;;;;;;;9.60;48.60;99717.64;1737223;81;21379;-81
2023/11/30 02:31:41;;;;;;;17.90;12.15;;;;;;;9.84;48.28;99739.25;1723391;83;21328;-81
2023/11/30 02:34:47;;;;;;;17.62;11.80;;;;;;;9.60;48.89;99742.22;1722436;83;21803;-81
2023/11/30 02:37:53;;;;;;;17.85;11.38;;;;;;;9.57;49.05;99756.22;1722342;83;21305;-81
2023/11/30 02:40:59;;;;;;;15.58;10.28;;;;;;;9.52;49.09;99759.50;1723436;83;21838;-82
2023/11/30 02:44:05;;;;;;;18.25;10.82;;;;;;;9.61;48.87;99779.41;1722798;83;21270;-82
2023/11/30 02:47:11;;;;;;;16.80;11.15;;;;;;;10.01;47.97;99772.70;1723034;83;21855;-82
2023/11/30 02:50:17;;;;;;;18.17;11.75;;;;;;;9.77;48.32;99777.04;1722117;83;21338;-82
2023/11/30 02:53:22;;;;;;;14.35;10.40;;;;;;;9.78;48.23;99774.63;1723310;83;21261;-82
2023/11/30 02:56:28;;;;;;;14.58;10.30;;;;;;;9.67;48.22;99773.20;1723440;83;21253;-81
2023/11/30 02:59:38;;;;;;;18.85;11.22;;;;;;;9.76;47.93;99774.83;1723370;83;21854;-81
2023/11/30 03:02:45;;;;;;;16.42;10.93;;;;;;;9.62;47.96;99789.28;1722732;83;21289;-81
2023/11/30 03:05:51;;;;;;;16.65;11.20;;;;;;;9.41;48.41;99788.57;1723555;83;21262;-81
2023/11/30 03:08:57;;;;;;;17.20;10.48;;;;;;;9.25;48.68;99770.44;1723348;83;21289;-81
2023/11/30 03:12:03;;;;;;;16.23;11.22;;;;;;;9.13;48.98;99782.81;1723167;83;21297;-82
2023/11/30 03:15:09;;;;;;;17.73;11.53;;;;;;;9.06;48.01;99800.92;1722501;83;21273;-81
2023/11/30 03:18:14;;;;;;;17.05;11.83;;;;;;;9.08;48.00;99786.08;1722510;83;21845;-81
2023/11/30 03:21:25;;;;;;;19.30;11.10;;;;;;;9.02;48.21;99780.47;1723507;83;21282;-81
2023/11/30 03:24:32;;;;;;;20.82;11.63;;;;;;;9.23;47.78;99790.77;1722997;83;21293;-81
2023/11/30 03:27:38;;;;;;;19.05;10.15;;;;;;;9.07;48.03;99795.79;1721586;83;21269;-82
2023/11/30 03:30:43;;;;;;;18.32;11.22;;;;;;;9.19;47.93;99802.55;1723323;83;21250;-82
2023/11/30 03:33:50;;;;;;;15.08;10.20;;;;;;;9.04;47.60;99802.98;1722214;83;21257;-81
2023/11/30 03:36:49;;;;;;;17.07;11.60;;;;;;;9.11;47.29;99806.69;1723271;83;21890;-81
2023/11/30 03:39:41;;;;;;;16.23;10.63;;;;;;;9.04;46.90;99806.56;1721975;83;21317;-81
2023/11/30 03:42:47;;;;;;;16.73;10.98;;;;;;;8.78;47.25;99808.72;1722734;83;21317;-81
2023/11/30 03:45:54;;;;;;;15.38;10.48;;;;;;;8.81;47.24;99807.86;1722284;83;21297;-81
2023/11/30 03:49:01;;;;;;;16.52;10.65;;;;;;;8.78;46.79;99801.39;1723468;83;21270;-81
2023/11/30 03:52:07;;;;;;;17.52;11.18;;;;;;;8.67;47.10;99829.05;1738220;81;21346;-81
2023/11/30 03:55:14;;;;;;;17.15;9.83;;;;;;;8.51;47.89;99839.98;1737134;82;21845;-81
2023/11/30 03:58:20;;;;;;;19.52;11.43;;;;;;;8.39;48.21;99831.34;1737613;81;21323;-81
2023/11/30 04:01:31;;;;;;;15.83;10.35;;;;;;;8.41;48.43;99834.73;1738650;81;21291;-81
2023/11/30 04:04:31;;;;;;;22.20;11.08;;;;;;;8.49;48.19;99832.52;1738118;82;21330;-80
2023/11/30 04:07:39;;;;;;;16.73;10.53;;;;;;;8.57;48.20;99840.67;1737884;81;21379;-80
2023/11/30 04:10:45;;;;;;;16.87;11.08;;;;;;;8.22;48.50;99861.81;1738576;82;21318;-81
2023/11/30 04:13:54;;;;;;;17.25;10.23;;;;;;;8.34;48.85;99865.05;1738537;82;21931;-81
2023/11/30 04:17:01;;;;;;;19.17;11.97;;;;;;;8.42;48.90;99855.02;1738406;81;21315;-82
2023/11/30 04:20:08;;;;;;;15.72;11.18;;;;;;;8.77;48.62;99876.56;1738361;82;21857;-82
2023/11/30 04:23:15;;;;;;;15.85;10.48;;;;;;;9.19;47.97;99859.86;1737524;81;21331;-81
2023/11/30 04:26:21;;;;;;;13.98;8.95;;;;;;;9.17;47.66;99870.08;1737162;81;21340;-81
2023/11/30 04:29:26;;;;;;;16.23;9.53;;;;;;;8.83;47.70;99869.88;1736515;82;21358;-81
2023/11/30 04:32:32;;;;;;;20.48;11.22;;;;;;;8.81;47.33;99882.86;1737390;81;21861;-82
2023/11/30 04:35:38;;;;;;;20.92;9.75;;;;;;;8.69;47.68;99877.42;1737481;82;21323;-82
2023/11/30 04:38:44;;;;;;;14.50;9.95;;;;;;;8.69;47.69;99882.88;1736815;82;21919;-82
2023/11/30 04:41:50;;;;;;;13.90;9.20;;;;;;;8.45;48.05;99895.54;1737846;81;21873;-82
2023/11/30 04:44:56;;;;;;;13.93;9.68;;;;;;;8.41;48.23;99899.63;1738060;82;21228;-81
2023/11/30 04:48:02;;;;;;;18.90;11.22;;;;;;;8.53;48.01;99907.47;1737235;81;21303;-82
2023/11/30 04:51:08;;;;;;;18.48;10.32;;;;;;;8.49;48.08;99917.86;1737999;82;21280;-82
2023/11/30 04:54:14;;;;;;;13.53;9.43;;;;;;;8.62;48.13;99920.91;1737702;82;21311;-81
2023/11/30 04:57:20;;;;;;;18.82;10.40;;;;;;;8.36;48.82;99927.03;1737637;81;21335;-81
2023/11/30 05:00:27;;;;;;;14.55;10.08;;;;;;;8.45;48.83;99930.97;1738036;82;21297;-81
2023/11/30 05:03:32;;;;;;;17.25;9.33;;;;;;;8.34;49.07;99919.04;1736742;81;21876;-82
2023/11/30 05:06:39;;;;;;;18.85;11.30;;;;;;;8.50;48.70;99919.55;1737072;81;21304;-82
2023/11/30 05:09:45;;;;;;;17.70;10.63;;;;;;;8.64;48.33;99922.94;1737479;82;21936;-82
2023/11/30 05:12:51;;;;;;;14.35;10.30;;;;;;;8.65;48.44;99926.51;1736756;81;21315;-81
2023/11/30 05:15:58;;;;;;;19.55;11.60;;;;;;;8.70;48.44;99944.56;1736676;82;21332;-82
2023/11/30 05:19:04;;;;;;;19.17;11.15;;;;;;;8.66;48.30;99952.27;1737990;82;21928;-82
2023/11/30 05:22:10;;;;;;;19.82;11.65;;;;;;;8.53;48.50;99952.45;1737591;81;21845;-82
2023/11/30 05:25:15;;;;;;;17.45;9.98;;;;;;;8.42;48.48;99941.36;1737151;82;21216;-82
2023/11/30 05:28:21;;;;;;;17.17;11.05;;;;;;;8.45;47.99;99947.33;1736972;81;21311;-81
2023/11/30 05:31:27;;;;;;;19.73;10.25;;;;;;;8.45;48.08;99958.23;1722045;82;21299;-81
2023/11/30 05:34:35;;;;;;;18.62;10.90;;;;;;;8.49;48.01;99967.44;1718296;83;21275;-81
2023/11/30 05:37:41;;;;;;;18.40;10.13;;;;;;;8.32;48.31;99956.48;1718130;82;21318;-81
2023/11/30 05:40:49;;;;;;;18.15;10.65;;;;;;;8.24;48.25;99958.39;1718705;83;21337;-82
2023/11/30 05:43:54;;;;;;;21.93;11.85;;;;;;;8.06;48.63;99955.30;1719481;83;21284;-81
2023/11/30 05:47:01;;;;;;;16.12;9.78;;;;;;;8.26;48.04;99956.33;1718710;82;21295;-81
2023/11/30 05:50:09;;;;;;;17.30;9.88;;;;;;;8.32;47.94;99955.13;1719623;83;21306;-81
2023/11/30 05:53:14;;;;;;;18.45;10.25;;;;;;;8.30;48.02;99953.09;1718471;82;21310;-82
2023/11/30 05:56:19;;;;;;;16.27;11.12;;;;;;;8.42;47.83;99962.68;1718882;82;21906;-82
2023/11/30 05:59:25;;;;;;;19.32;10.88;;;;;;;8.44;47.78;99969.31;1718184;83;21923;-81
2023/11/30 06:02:32;;;;;;;18.37;10.55;;;;;;;8.37;47.57;99965.03;1717710;82;21895;-82
2023/11/30 06:05:36;;;;;;;20.70;10.93;;;;;;;8.25;47.81;99979.16;1719085;83;21283;-81
2023/11/30 06:08:42;;;;;;;25.80;11.03;;;;;;;8.35;47.80;99988.86;1719039;83;21346;-81
2023/11/30 06:11:50;;;;;;;19.57;11.83;;;;;;;8.28;47.90;99991.94;1657105;85;21310;-82
2023/11/30 06:14:56;;;;;;;17.52;10.82;;;;;;;8.12;48.23;99996.84;1689361;83;21298;-82
2023/11/30 06:18:02;;;;;;;22.37;11.63;;;;;;;8.33;48.00;100018.69;1689960;83;21279;-81
2023/11/30 06:21:07;;;;;;;17.90;11.20;;;;;;;8.44;47.75;100012.92;1679438;85;22454;-81
2023/11/30 06:24:12;;;;;;;19.27;11.43;;;;;;;8.44;47.68;100009.68;1665446;85;21343;-82
2023/11/30 06:27:18;;;;;;;22.35;11.35;;;;;;;8.61;47.25;100009.66;1683071;84;21535;-82
2023/11/30 06:30:25;;;;;;;17.52;11.38;;;;;;;8.52;47.34;100008.84;1687436;85;21308;-81
2023/11/30 06:33:31;;;;;;;19.95;11.08;;;;;;;8.57;47.27;100009.18;1702801;82;21293;-80
2023/11/30 06:36:36;;;;;;;19.67;10.63;;;;;;;8.65;47.09;100006.94;1661711;85;21294;-81
2023/11/30 06:39:42;;;;;;;18.00;10.15;;;;;;;8.68;47.05;100010.19;1655894;86;21821;-81
2023/11/30 06:42:48;;;;;;;16.30;10.93;;;;;;;8.90;46.52;100024.16;1684462;85;21326;-82
2023/11/30 06:45:53;;;;;;;25.35;11.08;;;;;;;8.84;46.67;100046.12;1686043;83;21966;-82
2023/11/30 06:49:00;;;;;;;23.32;11.05;;;;;;;9.58;45.26;100045.98;1694949;83;21924;-82
2023/11/30 06:52:06;;;;;;;18.62;10.88;;;;;;;8.81;46.90;100045.64;1682972;83;21999;-80
2023/11/30 06:55:12;;;;;;;21.42;12.55;;;;;;;8.98;46.95;100043.73;1686680;83;21302;-81
2023/11/30 06:58:17;;;;;;;19.25;11.40;;;;;;;9.09;46.70;100033.84;1683935;83;21362;-81
2023/11/30 07:01:29;;;;;;;19.27;11.43;;;;;;;9.05;46.65;100055.16;1666687;86;21299;-82
2023/11/30 07:04:31;;;;;;;21.17;11.60;;;;;;;9.40;46.11;100059.85;1666853;85;21312;-81
2023/11/30 07:07:37;;;;;;;21.10;11.83;;;;;;;8.79;46.98;100068.97;1689039;83;21868;-82
2023/11/30 07:10:44;;;;;;;15.23;10.48;;;;;;;8.93;46.87;100064.19;1686792;83;21299;-81
2023/11/30 07:13:53;;;;;;;17.82;11.28;;;;;;;8.74;47.01;100078.17;1679752;83;21288;-80
2023/11/30 07:16:59;;;;;;;19.52;11.60;;;;;;;8.66;47.15;100076.84;1676376;83;21291;-81
2023/11/30 07:20:06;;;;;;;17.25;10.78;;;;;;;8.66;47.22;100083.14;1681242;85;21209;-82
2023/11/30 07:23:13;;;;;;;18.62;11.03;;;;;;;8.92;46.81;100084.31;1680424;85;21853;-82
2023/11/30 07:26:22;;;;;;;18.52;10.98;;;;;;;9.11;46.18;100099.99;1681767;83;21364;-80
2023/11/30 07:29:37;;;;;;;16.90;11.00;;;;;;;9.15;46.16;100116.37;1694370;83;21302;-82
2023/11/30 07:32:44;;;;;;;16.37;10.38;;;;;;;9.29;46.34;100126.59;1700736;82;21709;-81
2023/11/30 07:35:52;;;;;;;17.17;10.53;;;;;;;9.45;46.70;100132.00;1712450;82;21315;-81
2023/11/30 07:38:58;;;;;;;18.87;11.15;;;;;;;9.59;46.68;100128.23;1714871;82;21279;-81
2023/11/30 07:42:03;;;;;;;18.73;11.12;;;;;;;9.50;46.66;100133.37;1714152;82;21961;-81
2023/11/30 07:45:10;;;;;;;20.37;11.45;;;;;;;9.40;46.14;100128.95;1712092;82;21889;-83
2023/11/30 07:48:15;;;;;;;18.50;10.95;;;;;;;9.43;45.23;100135.95;1713991;81;21650;-80
2023/11/30 07:51:23;;;;;;;18.98;10.58;;;;;;;9.43;45.36;100142.78;1705146;82;21307;-80
2023/11/30 07:54:29;;;;;;;20.48;11.57;;;;;;;9.33;45.72;100155.24;1707319;82;21295;-81
2023/11/30 07:57:36;;;;;;;17.70;10.55;;;;;;;9.30;45.57;100152.00;1713919;82;21287;-80
2023/11/30 08:00:42;;;;;;;19.80;11.78;;;;;;;9.19;45.18;100160.03;1704846;82;21319;-80
2023/11/30 08:03:48;;;;;;;19.10;10.90;;;;;;;9.05;45.71;100160.20;1689414;83;21280;-80
2023/11/30 08:06:54;;;;;;;20.52;12.03;;;;;;;9.00;46.21;100161.73;1703218;82;21293;-80
2023/11/30 08:10:00;;;;;;;21.27;12.95;;;;;;;9.16;45.54;100153.53;1701082;82;21260;-81
2023/11/30 08:13:07;;;;;;;19.05;11.30;;;;;;;9.08;45.59;100153.53;1701806;82;21319;-80
2023/11/30 08:16:14;;;;;;;21.20;12.25;;;;;;;8.63;46.67;100153.50;1703167;84;21255;-81
2023/11/30 08:19:21;;;;;;;20.23;12.05;;;;;;;8.63;46.43;100157.59;1706054;82;21276;-81
2023/11/30 08:22:26;;;;;;;19.12;10.90;;;;;;;8.42;46.39;100167.09;1706403;82;21350;-81
2023/11/30 08:25:32;;;;;;;19.32;11.12;;;;;;;8.47;46.83;100176.14;1707712;82;21328;-81
2023/11/30 08:28:38;;;;;;;18.25;11.35;;;;;;;8.24;47.33;100173.13;1689937;83;21306;-81
2023/11/30 08:31:44;;;;;;;20.32;11.97;;;;;;;8.42;47.03;100173.03;1688256;83;21658;-80
2023/11/30 08:34:51;;;;;;;20.12;12.60;;;;;;;8.65;46.84;100170.53;1674629;83;21274;-81
2023/11/30 08:37:56;;;;;;;18.35;12.03;;;;;;;8.83;46.59;100165.80;1653119;84;21293;-81
2023/11/30 08:41:00;;;;;;;19.85;11.38;;;;;;;8.66;46.88;100163.58;1688311;85;21280;-80
2023/11/30 08:44:06;;;;;;;21.93;12.10;;;;;;;8.73;46.78;100169.71;1656095;84;21820;-81
2023/11/30 08:47:12;;;;;;;19.23;11.85;;;;;;;8.63;47.07;100163.90;1695324;81;21306;-81
2023/11/30 08:50:17;;;;;;;20.02;12.07;;;;;;;8.58;46.66;100159.97;1654224;84;21292;-81
2023/11/30 08:53:24;;;;;;;20.60;11.28;;;;;;;8.82;46.38;100164.09;1663382;84;21347;-81
2023/11/30 08:56:29;;;;;;;21.95;12.88;;;;;;;8.90;46.14;100166.84;1661818;84;21298;-81
2023/11/30 08:59:35;;;;;;;26.23;13.05;;;;;;;9.03;46.23;100170.41;1696456;83;21274;-81
2023/11/30 09:02:41;;;;;;;20.52;12.98;;;;;;;9.01;46.22;100168.89;1688522;82;21258;-81
2023/11/30 09:05:40;;;;;;;17.57;9.60;;;;;;;9.18;46.14;100171.46;1706505;83;21801;-81
2023/11/30 09:08:46;;;;;;;23.60;11.93;;;;;;;9.49;45.76;100166.64;1706409;83;21295;-81
2023/11/30 09:11:51;;;;;;;21.40;10.95;;;;;;;9.41;45.88;100167.53;1698323;83;21971;-81
2023/11/30 09:14:59;;;;;;;17.85;11.10;;;;;;;9.31;46.36;100163.25;1689051;83;21282;-81
2023/11/30 09:18:07;;;;;;;22.00;11.18;;;;;;;9.68;45.78;100161.32;1694950;82;21299;-82
2023/11/30 09:21:12;;;;;;;19.92;11.45;;;;;;;9.72;45.49;100162.68;1696287;83;21350;-81
2023/11/30 09:24:21;;;;;;;22.65;11.45;;;;;;;9.67;45.33;100161.84;1686362;83;21254;-81
2023/11/30 09:27:24;;;;;;;19.80;11.38;;;;;;;9.55;45.73;100159.15;1694645;83;21315;-81
2023/11/30 09:30:29;;;;;;;20.60;11.80;;;;;;;9.53;45.99;100165.28;1690906;83;21299;-81
2023/11/30 09:33:35;;;;;;;18.27;11.35;;;;;;;9.75;45.59;100173.78;1692275;83;21274;-81
2023/11/30 09:36:41;;;;;;;20.45;10.95;;;;;;;9.73;45.83;100176.16;1688169;82;21899;-82
2023/11/30 09:39:49;;;;;;;23.35;11.43;;;;;;;10.17;45.09;100171.59;1688979;83;21331;-81
2023/11/30 09:42:56;;;;;;;19.20;10.88;;;;;;;9.81;45.48;100178.54;1684366;83;21836;-81
2023/11/30 09:46:02;;;;;;;19.92;10.72;;;;;;;9.86;45.68;100172.89;1687639;83;21325;-81
2023/11/30 09:49:09;;;;;;;26.55;12.20;;;;;;;10.04;45.48;100171.81;1667539;84;21287;-81
2023/11/30 09:52:16;;;;;;;17.17;8.58;;;;;;;9.81;46.01;100165.73;1687320;83;22226;-81
2023/11/30 09:55:25;;;;;;;18.12;11.50;;;;;;;9.87;45.91;100167.75;1660191;85;21825;-82
2023/11/30 09:58:30;;;;;;;20.08;11.93;;;;;;;10.08;45.34;100174.02;1685960;83;21320;-82
2023/11/30 10:01:35;;;;;;;19.60;11.63;;;;;;;10.39;44.97;100169.13;1664568;84;21845;-82
2023/11/30 10:04:41;;;;;;;19.40;11.30;;;;;;;10.16;45.48;100176.73;1669268;84;21470;-82
2023/11/30 10:07:49;;;;;;;18.07;11.40;;;;;;;10.03;45.47;100179.16;1665695;84;21933;-81
2023/11/30 10:10:54;;;;;;;18.05;10.28;;;;;;;10.10;45.43;100182.03;1667230;84;21667;-82
2023/11/30 10:14:00;;;;;;;21.65;10.32;;;;;;;10.10;45.61;100195.70;1644272;86;21829;-82
2023/11/30 10:17:07;;;;;;;18.48;10.20;;;;;;;10.27;45.16;100195.17;1660410;84;21613;-82
2023/11/30 10:20:14;;;;;;;16.05;9.15;;;;;;;10.38;45.09;100195.61;1687825;83;21868;-82
2023/11/30 10:23:21;;;;;;;17.32;10.00;;;;;;;10.98;43.99;100196.83;1688845;83;21297;-82
2023/11/30 10:26:26;;;;;;;20.57;10.00;;;;;;;10.82;43.87;100192.81;1689583;83;21276;-81
2023/11/30 10:29:33;;;;;;;15.83;9.48;;;;;;;10.64;44.50;100189.02;1685748;83;21282;-81
2023/11/30 10:32:44;;;;;;;23.02;9.55;;;;;;;10.83;44.10;100192.66;1685127;84;21278;-81
2023/11/30 10:35:52;;;;;;;17.30;8.55;;;;;;;11.02;43.87;100183.11;1692566;82;21287;-80
2023/11/30 10:39:03;;;;;;;23.27;10.08;;;;;;;10.65;44.34;100181.98;1681803;85;21279;-80
2023/11/30 10:42:18;;;;;;;16.97;9.48;;;;;;;10.91;44.08;100189.84;1689868;83;21939;-81
2023/11/30 10:45:24;;;;;;;21.90;10.18;;;;;;;10.98;44.09;100183.98;1685187;83;21896;-82
2023/11/30 10:48:30;;;;;;;15.55;9.60;;;;;;;10.85;44.31;100192.45;1691872;83;21694;-82
2023/11/30 10:51:37;;;;;;;18.60;8.65;;;;;;;11.45;43.24;100187.55;1699746;83;21257;-81
2023/11/30 10:54:47;;;;;;;19.45;10.08;;;;;;;11.07;43.28;100190.78;1688595;85;21839;-82
2023/11/30 10:57:55;;;;;;;19.27;9.53;;;;;;;11.31;43.18;100198.79;1680533;85;21311;-81
2023/11/30 11:01:03;;;;;;;15.25;9.50;;;;;;;11.10;43.53;100197.23;1687524;83;21319;-81
2023/11/30 11:04:09;;;;;;;14.73;8.40;;;;;;;10.90;43.58;100199.09;1665933;85;21358;-81
2023/11/30 11:07:20;;;;;;;16.60;8.70;;;;;;;11.26;42.95;100202.60;1627837;86;21703;-81
2023/11/30 11:10:38;;;;;;;15.68;9.20;;;;;;;11.19;42.80;100201.09;1660571;84;21295;-82
2023/11/30 11:13:53;;;;;;;15.50;7.87;;;;;;;11.09;43.09;100205.12;1703730;83;21354;-81
2023/11/30 11:16:59;;;;;;;14.10;7.80;;;;;;;10.97;43.32;100200.08;1702524;82;21271;-81
2023/11/30 11:20:07;;;;;;;12.23;7.47;;;;;;;10.84;43.56;100212.13;1705875;82;21299;-82
2023/11/30 11:23:15;;;;;;;13.28;8.00;;;;;;;10.72;43.50;100211.67;1705103;83;21287;-81
2023/11/30 11:26:22;;;;;;;12.40;7.45;;;;;;;10.65;43.56;100223.02;1699379;81;21291;-81
2023/11/30 11:29:29;;;;;;;14.65;7.35;;;;;;;10.76;43.31;100221.75;1686897;83;21270;-81
2023/11/30 11:32:39;;;;;;;11.85;6.80;;;;;;;10.79;43.07;100224.13;1698266;83;21806;-82
2023/11/30 11:35:46;;;;;;;11.43;6.97;;;;;;;10.54;43.19;100225.27;1700434;83;21292;-82
2023/11/30 11:38:52;;;;;;;13.90;7.35;;;;;;;10.59;43.09;100227.84;1694208;83;21275;-82
2023/11/30 11:41:59;;;;;;;12.43;6.95;;;;;;;10.72;43.04;100236.30;1682862;83;21332;-82
2023/11/30 11:45:04;;;;;;;11.78;7.33;;;;;;;10.45;43.42;100243.11;1685076;85;21891;-82
2023/11/30 11:48:11;;;;;;;13.50;7.30;;;;;;;10.31;44.02;100244.37;1680988;84;21816;-81
2023/11/30 11:51:17;;;;;;;12.73;7.50;;;;;;;10.42;43.80;100232.52;1686559;83;21291;-81
2023/11/30 11:54:27;;;;;;;15.00;8.93;;;;;;;10.55;43.67;100236.58;1682628;85;21689;-82
2023/11/30 11:57:42;;;;;;;13.03;6.72;;;;;;;10.45;44.14;100236.27;1689573;83;21351;-81
2023/11/30 12:01:00;;;;;;;17.02;8.58;;;;;;;10.32;44.14;100246.91;1673917;85;21279;-82
2023/11/30 12:04:07;;;;;;;14.10;7.08;;;;;;;10.20;44.56;100246.39;1685560;85;21302;-82
2023/11/30 12:07:22;;;;;;;23.00;9.63;;;;;;;10.17;44.35;100247.28;1686753;83;21339;-83
2023/11/30 12:10:50;;;;;;;15.40;8.98;;;;;;;10.14;44.52;100240.78;1683361;85;21303;-82
2023/11/30 12:13:58;;;;;;;14.85;7.55;;;;;;;10.27;44.52;100243.86;1687968;85;21315;-80
2023/11/30 12:17:04;;;;;;;14.75;7.58;;;;;;;10.33;44.25;100256.81;1680038;85;21311;-82
2023/11/30 12:20:13;;;;;;;12.60;6.70;;;;;;;10.23;44.16;100258.35;1686550;85;21295;-82
2023/11/30 12:23:20;;;;;;;14.38;8.25;;;;;;;10.29;43.99;100256.82;1690624;82;21327;-82
2023/11/30 12:26:25;;;;;;;19.02;8.45;;;;;;;10.18;44.20;100266.74;1686564;85;22019;-81
2023/11/30 12:29:32;;;;;;;15.63;8.58;;;;;;;10.48;43.50;100274.18;1674073;84;21312;-83
2023/11/30 12:32:38;;;;;;;17.52;8.68;;;;;;;10.45;43.71;100270.45;1685648;83;21362;-83
2023/11/30 12:35:44;;;;;;;17.15;9.08;;;;;;;10.43;43.97;100269.76;1679333;85;21296;-82
2023/11/30 12:38:50;;;;;;;12.63;7.78;;;;;;;10.41;44.23;100270.98;1688423;84;21343;-81
2023/11/30 12:41:56;;;;;;;15.38;8.18;;;;;;;10.56;43.93;100284.25;1683555;85;21351;-81
2023/11/30 12:45:07;;;;;;;12.98;7.03;;;;;;;10.51;43.99;100292.66;1688963;85;21669;-82
2023/11/30 12:48:13;;;;;;;16.50;8.73;;;;;;;10.24;44.40;100298.88;1683699;85;21937;-82
2023/11/30 12:51:20;;;;;;;15.75;7.62;;;;;;;9.96;44.99;100307.42;1688877;83;21307;-81
2023/11/30 12:54:25;;;;;;;14.07;7.42;;;;;;;9.97;45.06;100311.88;1722236;83;21290;-82
2023/11/30 12:57:25;;;;;;;13.15;8.13;;;;;;;10.03;44.86;100303.50;1725019;82;21692;-83
2023/11/30 13:00:20;;;;;;;13.43;7.62;;;;;;;9.82;45.13;100301.28;1725637;83;21266;-82
2023/11/30 13:03:26;;;;;;;14.85;7.95;;;;;;;9.98;45.08;100298.55;1724503;82;21317;-82
2023/11/30 13:06:32;;;;;;;13.72;7.65;;;;;;;9.91;45.15;100292.06;1724926;81;21712;-82
2023/11/30 13:09:37;;;;;;;14.53;7.70;;;;;;;10.11;44.67;100292.53;1725854;83;21283;-81
2023/11/30 13:12:44;;;;;;;13.10;6.95;;;;;;;9.92;44.94;100296.49;1724689;82;21317;-80
2023/11/30 13:15:51;;;;;;;12.55;6.83;;;;;;;9.87;44.91;100303.50;1726292;83;21298;-82
2023/11/30 13:18:56;;;;;;;14.33;7.03;;;;;;;9.78;44.94;100304.02;1682041;85;21334;-80
2023/11/30 13:22:02;;;;;;;13.80;6.67;;;;;;;9.38;45.45;100307.08;1686136;83;21339;-82
2023/11/30 13:25:10;;;;;;;16.65;8.08;;;;;;;9.39;45.24;100306.05;1705057;83;21902;-82
2023/11/30 13:28:14;;;;;;;17.35;8.43;;;;;;;9.41;45.44;100317.67;1690102;85;21308;-81
2023/11/30 13:31:14;;;;;;;21.30;11.18;;;;;;;9.37;45.45;100314.09;1684532;85;21347;-82
2023/11/30 13:34:20;;;;;;;16.30;8.70;;;;;;;9.64;45.04;100314.26;1687953;85;21678;-81
2023/11/30 13:37:26;;;;;;;16.37;9.00;;;;;;;9.70;44.90;100313.60;1683425;85;21915;-81
2023/11/30 13:40:33;;;;;;;16.07;9.25;;;;;;;9.66;45.00;100310.34;1688390;83;21864;-82
2023/11/30 13:43:40;;;;;;;16.37;8.58;;;;;;;9.61;45.22;100320.93;1682963;85;21323;-82
2023/11/30 13:46:46;;;;;;;21.10;9.05;;;;;;;9.50;45.49;100324.49;1688145;85;21323;-81
2023/11/30 13:49:51;;;;;;;16.67;8.55;;;;;;;9.45;45.60;100324.48;1683421;85;21330;-82
2023/11/30 13:52:58;;;;;;;20.68;10.80;;;;;;;9.33;45.81;100329.94;1688275;85;22235;-81
2023/11/30 13:56:06;;;;;;;20.48;10.65;;;;;;;9.48;45.54;100340.53;1684272;85;21971;-81
2023/11/30 13:59:15;;;;;;;20.02;10.35;;;;;;;9.82;44.78;100336.80;1688391;85;21260;-82
2023/11/30 14:02:20;;;;;;;18.90;11.03;;;;;;;9.91;44.51;100340.39;1683788;85;21955;-82
2023/11/30 14:05:25;;;;;;;20.97;11.48;;;;;;;10.04;44.38;100344.83;1689323;85;21284;-82
2023/11/30 14:08:30;;;;;;;22.35;11.95;;;;;;;9.87;44.62;100341.23;1683357;85;21323;-81
2023/11/30 14:11:38;;;;;;;19.65;10.38;;;;;;;9.97;44.30;100339.21;1688886;85;21394;-82
2023/11/30 14:14:45;;;;;;;20.17;11.73;;;;;;;9.93;44.34;100339.20;1683751;85;21335;-82
2023/11/30 14:17:50;;;;;;;23.45;11.60;;;;;;;10.16;44.24;100351.66;1688374;85;21329;-82
2023/11/30 14:20:56;;;;;;;21.85;10.68;;;;;;;9.71;45.03;100353.54;1633942;86;21310;-83